createdAt,value
2022-10-23T00:01:50.530Z,101108.60
2022-10-23T00:04:22.868Z,101110.40
2022-10-23T00:06:51.893Z,101123.40
2022-10-23T00:09:24.073Z,101122.20
2022-10-23T00:11:53.528Z,101127.20
2022-10-23T00:14:25.532Z,101135.00
2022-10-23T00:16:54.013Z,101139.00
2022-10-23T00:19:22.905Z,101135.80
2022-10-23T00:21:51.591Z,101131.20
2022-10-23T00:24:20.291Z,101131.40
2022-10-23T00:26:51.265Z,101133.00
2022-10-23T00:29:19.802Z,101128.60
2022-10-23T00:31:48.182Z,101128.40
2022-10-23T00:34:19.736Z,101124.60
2022-10-23T00:36:48.218Z,101121.00
2022-10-23T00:39:16.702Z,101123.00
2022-10-23T00:41:45.185Z,101119.80
2022-10-23T00:44:22.779Z,101123.60
2022-10-23T00:46:51.362Z,101128.00
2022-10-23T00:49:20.705Z,101127.00
2022-10-23T00:51:57.339Z,101130.20
2022-10-23T00:54:31.723Z,101130.00
2022-10-23T00:57:04.518Z,101129.20
2022-10-23T00:59:33.895Z,101132.00
2022-10-23T01:02:02.438Z,101129.80
2022-10-23T01:04:32.445Z,101131.20
2022-10-23T01:07:08.613Z,101132.40
2022-10-23T01:10:08.835Z,101142.00
2022-10-23T01:12:57.900Z,101146.00
2022-10-23T01:16:19.116Z,101149.00
2022-10-23T01:19:02.140Z,101152.20
2022-10-23T01:22:02.059Z,101148.20
2022-10-23T01:24:58.090Z,101147.80
2022-10-23T01:27:40.397Z,101150.20
2022-10-23T01:30:16.637Z,101158.20
2022-10-23T01:32:54.356Z,101161.20
2022-10-23T01:35:38.245Z,101161.80
2022-10-23T01:38:16.718Z,101155.20
2022-10-23T01:41:03.171Z,101158.60
2022-10-23T01:43:48.291Z,101161.20
2022-10-23T01:46:18.660Z,101155.00
2022-10-23T01:48:52.880Z,101160.40
2022-10-23T01:51:26.920Z,101158.20
2022-10-23T01:54:00.759Z,101164.00
2022-10-23T01:56:33.906Z,101166.00
2022-10-23T01:59:09.964Z,101160.40
2022-10-23T02:01:44.272Z,101158.20
2022-10-23T02:04:36.466Z,101158.80
2022-10-23T02:07:05.558Z,101155.60
2022-10-23T02:09:34.311Z,101161.40
2022-10-23T02:12:37.796Z,101156.40
2022-10-23T02:15:34.185Z,101159.60
2022-10-23T02:18:12.293Z,101165.00
2022-10-23T02:20:54.805Z,101168.80
2022-10-23T02:23:34.142Z,101169.20
2022-10-23T02:26:30.170Z,101171.20
2022-10-23T02:29:17.905Z,101171.40
2022-10-23T02:31:47.100Z,101176.20
2022-10-23T02:34:15.583Z,101172.60
2022-10-23T02:36:44.067Z,101176.80
2022-10-23T02:39:12.547Z,101170.60
2022-10-23T02:41:56.287Z,101171.00
2022-10-23T02:45:04.605Z,101177.00
2022-10-23T02:47:48.653Z,101175.80
2022-10-23T02:50:36.075Z,101175.60
2022-10-23T02:53:31.080Z,101169.60
2022-10-23T02:56:27.729Z,101170.20
2022-10-23T02:59:08.395Z,101171.00
2022-10-23T03:01:53.379Z,101169.80
2022-10-23T03:04:26.412Z,101175.00
2022-10-23T03:06:55.958Z,101171.00
2022-10-23T03:09:26.847Z,101172.80
2022-10-23T03:11:55.275Z,101182.20
2022-10-23T03:14:25.191Z,101184.60
2022-10-23T03:16:53.569Z,101182.20
2022-10-23T03:19:22.265Z,101183.60
2022-10-23T03:21:50.846Z,101183.80
2022-10-23T03:24:19.533Z,101182.00
2022-10-23T03:26:48.328Z,101176.20
2022-10-23T03:29:16.710Z,101175.60
2022-10-23T03:31:46.925Z,101176.80
2022-10-23T03:34:16.018Z,101176.40
2022-10-23T03:36:44.602Z,101181.60
2022-10-23T03:39:13.288Z,101181.20
2022-10-23T03:41:43.717Z,101178.00
2022-10-23T03:44:12.198Z,101182.00
2022-10-23T03:46:45.648Z,101187.00
2022-10-23T03:49:14.076Z,101194.80
2022-10-23T03:51:52.096Z,101191.80
2022-10-23T03:54:25.616Z,101193.40
2022-10-23T03:56:57.516Z,101193.80
2022-10-23T03:59:28.232Z,101197.60
2022-10-23T04:01:56.951Z,101195.60
2022-10-23T04:04:25.959Z,101201.20
2022-10-23T04:06:55.158Z,101200.20
2022-10-23T04:09:23.953Z,101206.00
2022-10-23T04:11:52.429Z,101198.60
2022-10-23T04:14:20.917Z,101194.60
2022-10-23T04:16:49.495Z,101190.00
2022-10-23T04:19:18.297Z,101190.20
2022-10-23T04:21:47.383Z,101187.20
2022-10-23T04:24:15.863Z,101191.20
2022-10-23T04:26:44.551Z,101196.00
2022-10-23T04:29:13.037Z,101198.20
2022-10-23T04:31:41.821Z,101196.20
2022-10-23T04:34:10.413Z,101196.00
2022-10-23T04:36:39.093Z,101199.20
2022-10-23T04:39:11.988Z,101199.00
2022-10-23T04:41:40.869Z,101201.20
2022-10-23T04:44:09.533Z,101197.40
2022-10-23T04:46:41.012Z,101200.00
2022-10-23T04:49:10.821Z,101200.80
2022-10-23T04:52:02.652Z,101199.00
2022-10-23T04:54:40.335Z,101191.60
2022-10-23T04:57:47.129Z,101188.40
2022-10-23T05:00:16.673Z,101186.60
2022-10-23T05:02:56.790Z,101183.40
2022-10-23T05:05:25.374Z,101185.20
2022-10-23T05:08:18.535Z,101186.60
2022-10-23T05:11:15.587Z,101189.40
2022-10-23T05:13:47.864Z,101188.80
2022-10-23T05:16:37.845Z,101190.00
2022-10-23T05:19:09.429Z,101184.80
2022-10-23T05:21:40.645Z,101189.20
2022-10-23T05:24:11.328Z,101186.40
2022-10-23T05:26:40.579Z,101184.20
2022-10-23T05:29:10.289Z,101182.20
2022-10-23T05:31:39.898Z,101176.40
2022-10-23T05:34:17.292Z,101177.60
2022-10-23T05:36:47.310Z,101184.80
2022-10-23T05:39:17.019Z,101185.20
2022-10-23T05:41:46.217Z,101187.80
2022-10-23T05:44:23.216Z,101189.60
2022-10-23T05:47:10.934Z,101194.20
2022-10-23T05:49:55.722Z,101190.40
2022-10-23T05:52:25.201Z,101188.00
2022-10-23T05:55:17.175Z,101186.00
2022-10-23T05:57:48.688Z,101189.00
2022-10-23T06:00:23.006Z,101189.40
2022-10-23T06:03:01.952Z,101190.60
2022-10-23T06:08:37.309Z,101189.80
2022-10-23T06:11:13.226Z,101190.40
2022-10-23T06:13:46.430Z,101193.40
2022-10-23T06:16:28.332Z,101191.40
2022-10-23T06:18:59.856Z,101195.40
2022-10-23T06:21:31.617Z,101194.20
2022-10-23T06:24:05.203Z,101192.40
2022-10-23T06:26:43.368Z,101195.20
2022-10-23T06:29:18.914Z,101196.80
2022-10-23T06:31:48.218Z,101199.40
2022-10-23T06:34:18.905Z,101192.60
2022-10-23T06:36:49.066Z,101196.80
2022-10-23T06:39:51.039Z,101192.20
2022-10-23T06:42:25.768Z,101183.40
2022-10-23T06:44:57.751Z,101189.00
2022-10-23T06:47:52.837Z,101195.00
2022-10-23T06:50:25.444Z,101195.00
2022-10-23T06:52:54.819Z,101200.20
2022-10-23T06:55:23.832Z,101200.20
2022-10-23T06:57:53.728Z,101210.60
2022-10-23T07:00:22.313Z,101220.80
2022-10-23T07:02:53.163Z,101218.80
2022-10-23T07:05:21.836Z,101225.20
2022-10-23T07:07:50.318Z,101224.00
2022-10-23T07:10:24.503Z,101223.80
2022-10-23T07:13:01.365Z,101223.60
2022-10-23T07:15:50.274Z,101223.00
2022-10-23T07:18:23.014Z,101218.20
2022-10-23T07:21:11.118Z,101216.40
2022-10-23T07:23:40.383Z,101211.60
2022-10-23T07:26:17.078Z,101212.00
2022-10-23T07:28:48.851Z,101210.80
2022-10-23T07:31:24.308Z,101212.40
2022-10-23T07:34:14.262Z,101202.40
2022-10-23T07:36:43.157Z,101198.20
2022-10-23T07:39:12.352Z,101206.60
2022-10-23T07:41:46.570Z,101210.40
2022-10-23T07:44:15.870Z,101212.60
2022-10-23T07:46:44.561Z,101213.40
2022-10-23T07:49:13.040Z,101212.40
2022-10-23T07:51:42.183Z,101209.40
2022-10-23T07:54:14.203Z,101212.40
2022-10-23T07:57:01.425Z,101205.60
2022-10-23T07:59:44.856Z,101206.20
2022-10-23T08:02:15.774Z,101210.40
2022-10-23T08:04:44.687Z,101208.20
2022-10-23T08:07:36.209Z,101204.80
2022-10-23T08:10:05.408Z,101197.20
2022-10-23T08:12:34.607Z,101204.80
2022-10-23T08:15:03.703Z,101206.20
2022-10-23T08:17:39.741Z,101205.00
2022-10-23T08:20:28.624Z,101207.00
2022-10-23T08:22:57.309Z,101205.20
2022-10-23T08:25:26.267Z,101199.40
2022-10-23T08:27:55.109Z,101194.00
2022-10-23T08:30:24.294Z,101194.60
2022-10-23T08:32:53.183Z,101197.40
2022-10-23T08:35:23.153Z,101193.00
2022-10-23T08:37:52.195Z,101194.00
2022-10-23T08:40:25.495Z,101197.60
2022-10-23T08:43:47.322Z,101196.20
2022-10-23T08:46:45.180Z,101200.60
2022-10-23T08:49:49.824Z,101197.00
2022-10-23T08:53:01.315Z,101201.60
2022-10-23T08:55:59.800Z,101196.80
2022-10-23T08:58:48.728Z,101194.40
2022-10-23T09:01:49.513Z,101194.20
2022-10-23T09:04:18.289Z,101186.80
2022-10-23T09:06:58.893Z,101196.00
2022-10-23T09:10:03.496Z,101188.60
2022-10-23T09:12:32.281Z,101181.80
2022-10-23T09:15:28.921Z,101171.60
2022-10-23T09:18:06.864Z,101165.80
2022-10-23T09:20:36.580Z,101160.60
2022-10-23T09:23:20.388Z,101159.60
2022-10-23T09:25:55.675Z,101155.80
2022-10-23T09:28:33.565Z,101156.40
2022-10-23T09:31:12.409Z,101151.00
2022-10-23T09:33:42.058Z,101145.40
2022-10-23T09:36:14.125Z,101142.00
2022-10-23T09:38:55.101Z,101138.40
2022-10-23T09:41:30.335Z,101136.80
2022-10-23T09:44:30.153Z,101134.80
2022-10-23T09:47:14.092Z,101133.40
2022-10-23T09:49:50.109Z,101135.80
2022-10-23T09:52:32.052Z,101138.40
2022-10-23T09:55:04.322Z,101142.20
2022-10-23T09:57:44.638Z,101133.20
2022-10-23T10:00:24.332Z,101133.00
2022-10-23T10:02:55.574Z,101133.00
2022-10-23T10:05:43.162Z,101132.80
2022-10-23T10:08:20.599Z,101131.20
2022-10-23T10:11:12.220Z,101132.00
2022-10-23T10:14:23.608Z,101133.40
2022-10-23T10:17:01.718Z,101132.20
2022-10-23T10:20:03.963Z,101129.40
2022-10-23T10:23:03.202Z,101127.20
2022-10-23T10:26:04.954Z,101125.80
2022-10-23T10:29:14.191Z,101126.00
2022-10-23T10:32:06.537Z,101113.20
2022-10-23T10:35:09.731Z,101112.00
2022-10-23T10:38:28.595Z,101112.40
2022-10-23T10:41:37.011Z,101111.60
2022-10-23T10:45:02.839Z,101110.40
2022-10-23T10:47:50.787Z,101105.80
2022-10-23T10:50:48.166Z,101098.40
2022-10-23T10:54:01.572Z,101091.80
2022-10-23T10:56:33.799Z,101090.40
2022-10-23T10:59:11.850Z,101083.40
2022-10-23T11:01:49.961Z,101077.20
2022-10-23T11:04:40.762Z,101079.00
2022-10-23T11:07:14.666Z,101070.80
2022-10-23T11:09:44.192Z,101066.40
2022-10-23T11:12:25.333Z,101067.60
2022-10-23T11:14:54.038Z,101068.20
2022-10-23T11:17:34.199Z,101067.80
2022-10-23T11:20:32.686Z,101072.20
2022-10-23T11:23:41.929Z,101068.60
2022-10-23T11:26:30.065Z,101067.60
2022-10-23T11:29:20.257Z,101060.80
2022-10-23T11:32:06.662Z,101062.00
2022-10-23T11:35:19.381Z,101064.40
2022-10-23T11:38:09.571Z,101061.20
2022-10-23T11:40:48.252Z,101055.60
2022-10-23T11:43:46.984Z,101050.40
2022-10-23T11:46:35.569Z,101048.00
2022-10-23T11:49:06.703Z,101041.00
2022-10-23T11:51:42.739Z,101044.20
2022-10-23T11:54:13.884Z,101038.00
2022-10-23T11:57:12.097Z,101033.00
2022-10-23T11:59:50.070Z,101034.40
2022-10-23T12:02:39.824Z,101029.40
2022-10-23T12:05:42.429Z,101031.20
2022-10-23T12:08:27.460Z,101022.20
2022-10-23T12:10:56.214Z,101014.80
2022-10-23T12:13:50.885Z,101017.80
2022-10-23T12:16:19.265Z,101009.40
2022-10-23T12:18:53.860Z,101003.60
2022-10-23T12:21:29.050Z,101005.40
2022-10-23T12:24:22.806Z,101002.80
2022-10-23T12:26:59.582Z,101000.80
2022-10-23T12:30:00.636Z,100997.00
2022-10-23T12:32:47.309Z,100987.80
2022-10-23T12:35:23.499Z,100990.40
2022-10-23T12:38:02.131Z,100987.60
2022-10-23T12:40:31.244Z,100986.40
2022-10-23T12:43:02.461Z,100988.80
2022-10-23T12:45:39.032Z,100986.60
2022-10-23T12:48:18.266Z,100979.40
2022-10-23T12:50:55.360Z,100974.80
2022-10-23T12:53:24.477Z,100969.40
2022-10-23T12:56:03.585Z,100966.00
2022-10-23T12:58:35.408Z,100961.40
2022-10-23T13:01:07.961Z,100962.40
2022-10-23T13:03:38.960Z,100956.80
2022-10-23T13:06:07.952Z,100950.80
2022-10-23T13:08:46.108Z,100954.20
2022-10-23T13:11:35.738Z,100961.60
2022-10-23T13:14:13.971Z,100957.00
2022-10-23T13:16:42.430Z,100953.80
2022-10-23T13:19:27.299Z,100952.20
2022-10-23T13:21:55.984Z,100955.40
2022-10-23T13:24:28.825Z,100961.80
2022-10-23T13:26:58.035Z,100958.20
2022-10-23T13:29:34.302Z,100956.80
2022-10-23T13:32:22.170Z,100949.00
2022-10-23T13:35:10.131Z,100950.80
2022-10-23T13:37:45.761Z,100943.60
2022-10-23T13:40:27.453Z,100937.20
2022-10-23T13:42:57.504Z,100937.20
2022-10-23T13:45:27.236Z,100939.40
2022-10-23T13:47:55.678Z,100940.80
2022-10-23T13:50:24.244Z,100944.80
2022-10-23T13:52:57.416Z,100942.60
2022-10-23T13:55:27.258Z,100943.60
2022-10-23T13:57:56.754Z,100937.00
2022-10-23T14:00:25.237Z,100932.80
2022-10-23T14:05:28.860Z,100930.20
2022-10-23T14:07:57.956Z,100929.00
2022-10-23T14:10:27.754Z,100922.60
2022-10-23T14:12:56.453Z,100927.60
2022-10-23T14:15:25.450Z,100925.60
2022-10-23T14:17:58.968Z,100923.80
2022-10-23T14:20:29.128Z,100928.20
2022-10-23T14:22:57.754Z,100920.40
2022-10-23T14:25:26.443Z,100918.40
2022-10-23T14:30:30.081Z,100925.20
2022-10-23T14:32:58.645Z,100923.40
2022-10-23T14:35:27.640Z,100917.20
2022-10-23T14:37:56.634Z,100914.40
2022-10-23T14:40:26.472Z,100916.20
2022-10-23T14:42:55.238Z,100914.40
2022-10-23T14:45:24.918Z,100912.80
2022-10-23T14:47:53.327Z,100903.20
2022-10-23T14:50:22.835Z,100897.40
2022-10-23T14:52:51.713Z,100904.00
2022-10-23T14:55:21.370Z,100906.20
2022-10-23T14:57:55.900Z,100901.20
2022-10-23T15:00:24.755Z,100896.20
2022-10-23T15:02:53.131Z,100892.40
2022-10-23T15:05:21.830Z,100892.80
2022-10-23T15:07:50.299Z,100896.00
2022-10-23T15:10:20.494Z,100896.20
2022-10-23T15:12:49.718Z,100899.20
2022-10-23T15:15:18.308Z,100899.20
2022-10-23T15:17:46.682Z,100894.20
2022-10-23T15:20:15.273Z,100895.40
2022-10-23T15:22:44.169Z,100896.20
2022-10-23T15:25:16.952Z,100899.60
2022-10-23T15:27:46.721Z,100895.20
2022-10-23T15:30:16.774Z,100896.20
2022-10-23T15:32:45.871Z,100898.80
2022-10-23T15:35:14.480Z,100892.80
2022-10-23T15:37:43.279Z,100893.00
2022-10-23T15:40:12.909Z,100898.20
2022-10-23T15:42:41.827Z,100898.80
2022-10-23T15:45:13.754Z,100893.80
2022-10-23T15:47:42.671Z,100890.80
2022-10-23T15:50:11.901Z,100886.60
2022-10-23T15:52:41.237Z,100884.20
2022-10-23T15:55:11.998Z,100878.00
2022-10-23T15:57:41.611Z,100877.60
2022-10-23T16:00:14.820Z,100877.00
2022-10-23T16:02:46.035Z,100872.40
2022-10-23T16:05:17.646Z,100870.00
2022-10-23T16:07:46.121Z,100869.00
2022-10-23T16:10:14.629Z,100861.60
2022-10-23T16:12:43.450Z,100863.20
2022-10-23T16:15:12.279Z,100866.80
2022-10-23T16:17:40.948Z,100861.00
2022-10-23T16:20:10.712Z,100860.80
2022-10-23T16:22:41.429Z,100863.20
2022-10-23T16:25:13.179Z,100862.20
2022-10-23T16:27:41.841Z,100862.40
2022-10-23T16:30:14.274Z,100860.20
2022-10-23T16:32:42.820Z,100863.60
2022-10-23T16:35:13.075Z,100854.40
2022-10-23T16:37:48.694Z,100857.00
2022-10-23T16:40:20.759Z,100855.80
2022-10-23T16:43:07.777Z,100857.00
2022-10-23T16:46:12.716Z,100860.00
2022-10-23T16:48:42.408Z,100860.60
2022-10-23T16:51:18.587Z,100867.00
2022-10-23T16:53:48.321Z,100867.60
2022-10-23T16:56:23.084Z,100863.00
2022-10-23T16:58:51.950Z,100858.40
2022-10-23T17:01:28.368Z,100847.80
2022-10-23T17:03:57.789Z,100847.40
2022-10-23T17:06:30.603Z,100848.20
2022-10-23T17:09:01.659Z,100846.40
2022-10-23T17:11:34.622Z,100842.40
2022-10-23T17:14:14.756Z,100837.80
2022-10-23T17:16:52.729Z,100836.60
2022-10-23T17:19:43.620Z,100831.80
2022-10-23T17:22:14.566Z,100824.00
2022-10-23T17:24:46.207Z,100838.20
2022-10-23T17:27:17.925Z,100826.20
2022-10-23T17:29:48.029Z,100827.60
2022-10-23T17:32:17.138Z,100830.80
2022-10-23T17:34:46.954Z,100826.60
2022-10-23T17:37:15.538Z,100826.00
2022-10-23T17:39:44.428Z,100823.80
2022-10-23T17:42:13.027Z,100815.20
2022-10-23T17:44:41.964Z,100820.00
2022-10-23T17:47:11.001Z,100814.80
2022-10-23T17:49:42.778Z,100811.40
2022-10-23T17:52:15.440Z,100802.80
2022-10-23T17:54:43.929Z,100801.40
2022-10-23T17:57:12.878Z,100793.60
2022-10-23T17:59:41.816Z,100791.20
2022-10-23T18:02:13.464Z,100789.60
2022-10-23T18:04:42.151Z,100785.80
2022-10-23T18:07:11.253Z,100788.00
2022-10-23T18:09:39.832Z,100780.80
2022-10-23T18:12:09.032Z,100771.40
2022-10-23T18:14:38.548Z,100768.60
2022-10-23T18:17:07.334Z,100768.60
2022-10-23T18:19:36.831Z,100766.40
2022-10-23T18:22:05.561Z,100764.00
2022-10-23T18:24:34.412Z,100760.40
2022-10-23T18:27:03.304Z,100753.40
2022-10-23T18:29:32.101Z,100750.60
2022-10-23T18:32:00.676Z,100752.20
2022-10-23T18:34:29.260Z,100759.20
2022-10-23T18:36:57.744Z,100766.60
2022-10-23T18:39:26.637Z,100767.80
2022-10-23T18:41:58.197Z,100768.20
2022-10-23T18:44:29.493Z,100773.20
2022-10-23T18:47:00.180Z,100771.80
2022-10-23T18:49:29.299Z,100769.40
2022-10-23T18:51:58.820Z,100770.20
2022-10-23T18:54:27.356Z,100761.00
2022-10-23T18:56:55.940Z,100748.60
2022-10-23T18:59:24.730Z,100745.80
2022-10-23T19:01:53.540Z,100738.00
2022-10-23T19:04:22.210Z,100739.20
2022-10-23T19:06:52.210Z,100742.00
2022-10-23T19:09:21.115Z,100743.60
2022-10-23T19:11:50.724Z,100738.20
2022-10-23T19:14:19.615Z,100739.80
2022-10-23T19:16:56.189Z,100743.80
2022-10-23T19:19:34.620Z,100744.20
2022-10-23T19:22:04.936Z,100729.40
2022-10-23T19:24:48.217Z,100722.60
2022-10-23T19:27:17.149Z,100726.40
2022-10-23T19:29:48.420Z,100729.60
2022-10-23T19:32:16.980Z,100725.80
2022-10-23T19:34:45.803Z,100727.80
2022-10-23T19:37:16.183Z,100728.40
2022-10-23T19:39:44.577Z,100736.20
2022-10-23T19:42:13.674Z,100732.80
2022-10-23T19:44:42.827Z,100728.80
2022-10-23T19:47:11.356Z,100722.20
2022-10-23T19:49:39.838Z,100710.20
2022-10-23T19:52:08.538Z,100704.80
2022-10-23T19:54:38.104Z,100705.00
2022-10-23T19:57:06.511Z,100710.00
2022-10-23T19:59:34.996Z,100706.00
2022-10-23T20:02:04.335Z,100709.60
2022-10-23T20:04:33.993Z,100722.60
2022-10-23T20:07:02.338Z,100719.40
2022-10-23T20:09:31.714Z,100714.60
2022-10-23T20:12:00.821Z,100703.80
2022-10-23T20:14:29.426Z,100700.80
2022-10-23T20:16:57.951Z,100703.40
2022-10-23T20:19:26.434Z,100695.40
2022-10-23T20:21:55.326Z,100699.60
2022-10-23T20:24:23.705Z,100698.80
2022-10-23T20:26:55.120Z,100690.40
2022-10-23T20:29:25.205Z,100685.00
2022-10-23T20:31:53.657Z,100680.20
2022-10-23T20:34:22.139Z,100671.20
2022-10-23T20:36:50.726Z,100664.80
2022-10-23T20:39:25.765Z,100659.80
2022-10-23T20:41:57.845Z,100666.00
2022-10-23T20:44:26.625Z,100664.00
2022-10-23T20:46:55.607Z,100666.40
2022-10-23T20:49:24.811Z,100671.80
2022-10-23T20:51:56.582Z,100665.00
2022-10-23T20:54:29.025Z,100663.40
2022-10-23T20:56:59.082Z,100665.00
2022-10-23T20:59:27.546Z,100661.20
2022-10-23T21:01:57.461Z,100660.00
2022-10-23T21:04:28.103Z,100663.20
2022-10-23T21:07:09.856Z,100664.80
2022-10-23T21:09:40.393Z,100663.80
2022-10-23T21:12:10.160Z,100663.80
2022-10-23T21:14:39.024Z,100654.80
2022-10-23T21:17:09.039Z,100646.20
2022-10-23T21:19:39.405Z,100646.40
2022-10-23T21:22:07.845Z,100644.00
2022-10-23T21:24:36.471Z,100646.60
2022-10-23T21:27:05.012Z,100646.40
2022-10-23T21:29:33.597Z,100645.60
2022-10-23T21:32:02.304Z,100643.00
2022-10-23T21:34:31.075Z,100634.80
2022-10-23T21:37:15.207Z,100636.20
2022-10-23T21:39:46.088Z,100637.00
2022-10-23T21:42:15.650Z,100635.80
2022-10-23T21:44:44.661Z,100631.80
2022-10-23T21:47:13.758Z,100635.80
2022-10-23T21:49:42.238Z,100631.20
2022-10-23T21:52:10.721Z,100625.80
2022-10-23T21:54:39.201Z,100623.80
2022-10-23T21:57:15.777Z,100623.00
2022-10-23T21:59:44.767Z,100622.00
2022-10-23T22:02:13.246Z,100630.00
2022-10-23T22:04:42.332Z,100631.20
2022-10-23T22:07:15.119Z,100631.00
2022-10-23T22:09:44.327Z,100635.60
2022-10-23T22:12:13.121Z,100636.00
2022-10-23T22:14:42.758Z,100633.20
2022-10-23T22:17:11.207Z,100631.20
2022-10-23T22:19:39.690Z,100627.20
2022-10-23T22:22:08.070Z,100626.20
2022-10-23T22:24:37.547Z,100624.60
2022-10-23T22:27:05.954Z,100621.00
2022-10-23T22:29:34.457Z,100620.40
2022-10-23T22:32:02.922Z,100643.60
2022-10-23T22:34:51.872Z,100638.80
2022-10-23T22:37:20.568Z,100639.80
2022-10-23T22:39:53.145Z,100642.60
2022-10-23T22:42:21.833Z,100652.40
2022-10-23T22:44:50.212Z,100651.20
2022-10-23T22:47:18.592Z,100647.20
2022-10-23T22:49:47.073Z,100644.00
2022-10-23T22:52:15.453Z,100647.00
2022-10-23T22:54:43.939Z,100651.20
2022-10-23T22:57:12.472Z,100656.20
2022-10-23T22:59:41.002Z,100653.00
2022-10-23T23:02:10.302Z,100644.20
2022-10-23T23:04:39.382Z,100635.60
2022-10-23T23:07:11.546Z,100637.00
2022-10-23T23:09:42.916Z,100641.20
2022-10-23T23:12:14.197Z,100647.80
2022-10-23T23:14:43.376Z,100646.00
2022-10-23T23:17:12.268Z,100643.80
2022-10-23T23:19:40.840Z,100646.20
2022-10-23T23:22:09.847Z,100638.20
2022-10-23T23:24:39.237Z,100637.40
2022-10-23T23:27:07.615Z,100640.20
2022-10-23T23:29:35.996Z,100640.80
2022-10-23T23:32:06.525Z,100639.60
2022-10-23T23:34:34.907Z,100645.20
2022-10-23T23:37:03.696Z,100657.40
2022-10-23T23:39:32.493Z,100653.60
2022-10-23T23:42:01.068Z,100655.00
2022-10-23T23:44:29.865Z,100650.40
2022-10-23T23:46:58.341Z,100653.60
2022-10-23T23:49:26.823Z,100649.40
2022-10-23T23:51:55.304Z,100644.20
2022-10-23T23:54:23.784Z,100640.60
2022-10-23T23:56:52.268Z,100638.60
2022-10-23T23:59:20.647Z,100632.20
